Terminal Aerodrome Forecast
Issued by NWS

Home | Current Version | Previous Version | Text Only | Print | Product List | Glossary Off
Versions: 1 2 3 4 5 6 7 8 9 10 11 12 13 14 15 16 17 18 19 20 21 22

000
FTUS43 KBIS 240500 RRA
TAFDIK
TAF
KDIK 240555Z 2406/2506 10012KT P6SM SCT090 OVC180
     FM241000 15011KT P6SM VCSH SCT015 BKN045
     FM241200 19010KT 4SM -RA SCT012 OVC035
      TEMPO 2412/2416 26014KT 3SM -RA BKN010 OVC025
     FM241600 27018G24KT 2SM -RASN BR BKN010 OVC015
     FM242000 29023G30KT P6SM VCSH SCT018 BKN035
     FM250200 30021G29KT P6SM SCT012 BKN025=

USA.gov is the U.S. government's official web portal to all federal, state and local government web resources and services.